sensor_id;sensor_type;location;lat;lon;timestamp;pressure;altitude;pressure_sealevel;temperature;humidity
71716;BME280;59568;52.128;5.434;2023-05-23T00:01:30;102016.97;;;14.91;81.89
71716;BME280;59568;52.128;5.434;2023-05-23T00:03:57;102022.78;;;14.88;81.51
71716;BME280;59568;52.128;5.434;2023-05-23T00:06:24;102015.16;;;14.87;81.86
71716;BME280;59568;52.128;5.434;2023-05-23T00:08:52;102012.84;;;14.85;81.49
71716;BME280;59568;52.128;5.434;2023-05-23T00:11:19;102021.28;;;14.82;81.93
71716;BME280;59568;52.128;5.434;2023-05-23T00:13:49;102021.06;;;14.78;82.33
71716;BME280;59568;52.128;5.434;2023-05-23T00:16:16;102015.31;;;14.76;82.16
71716;BME280;59568;52.128;5.434;2023-05-23T00:18:43;102017.44;;;14.74;82.40
71716;BME280;59568;52.128;5.434;2023-05-23T00:21:11;102016.69;;;14.74;82.28
71716;BME280;59568;52.128;5.434;2023-05-23T00:23:41;102014.91;;;14.69;82.88
71716;BME280;59568;52.128;5.434;2023-05-23T00:26:09;102029.47;;;14.62;82.95
71716;BME280;59568;52.128;5.434;2023-05-23T00:28:36;102031.09;;;14.57;83.50
71716;BME280;59568;52.128;5.434;2023-05-23T00:31:03;102033.47;;;14.59;83.65
71716;BME280;59568;52.128;5.434;2023-05-23T00:33:30;102023.72;;;14.54;83.61
71716;BME280;59568;52.128;5.434;2023-05-23T00:36:01;102040.63;;;14.48;83.87
71716;BME280;59568;52.128;5.434;2023-05-23T00:38:28;102033.34;;;14.45;84.05
71716;BME280;59568;52.128;5.434;2023-05-23T00:40:55;102047.81;;;14.43;84.23
71716;BME280;59568;52.128;5.434;2023-05-23T00:43:22;102044.25;;;14.33;84.55
71716;BME280;59568;52.128;5.434;2023-05-23T00:45:49;102044.28;;;14.28;84.92
71716;BME280;59568;52.128;5.434;2023-05-23T00:48:16;102046.72;;;14.25;85.18
71716;BME280;59568;52.128;5.434;2023-05-23T00:50:43;102047.03;;;14.18;85.27
71716;BME280;59568;52.128;5.434;2023-05-23T00:53:12;102052.28;;;14.18;85.34
71716;BME280;59568;52.128;5.434;2023-05-23T00:55:39;102049.16;;;14.16;85.67
71716;BME280;59568;52.128;5.434;2023-05-23T00:58:06;102055.00;;;14.13;85.88
71716;BME280;59568;52.128;5.434;2023-05-23T01:00:33;102054.75;;;14.09;85.39
71716;BME280;59568;52.128;5.434;2023-05-23T01:03:01;102052.41;;;14.08;85.42
71716;BME280;59568;52.128;5.434;2023-05-23T01:05:28;102054.50;;;14.11;85.69
71716;BME280;59568;52.128;5.434;2023-05-23T01:07:56;102046.91;;;14.04;85.94
71716;BME280;59568;52.128;5.434;2023-05-23T01:10:25;102054.53;;;14.06;85.96
71716;BME280;59568;52.128;5.434;2023-05-23T01:13:05;102049.78;;;14.08;85.72
71716;BME280;59568;52.128;5.434;2023-05-23T01:15:44;102038.22;;;14.09;85.98
71716;BME280;59568;52.128;5.434;2023-05-23T01:18:25;102041.91;;;14.08;86.15
71716;BME280;59568;52.128;5.434;2023-05-23T01:21:04;102047.16;;;14.08;86.04
71716;BME280;59568;52.128;5.434;2023-05-23T01:29:21;102044.59;;;14.03;86.43
71716;BME280;59568;52.128;5.434;2023-05-23T01:31:52;102046.38;;;14.07;86.50
71716;BME280;59568;52.128;5.434;2023-05-23T01:34:21;102048.22;;;14.07;86.24
71716;BME280;59568;52.128;5.434;2023-05-23T01:36:54;102046.13;;;14.04;86.32
71716;BME280;59568;52.128;5.434;2023-05-23T01:39:22;102046.13;;;14.04;86.46
71716;BME280;59568;52.128;5.434;2023-05-23T01:41:50;102040.34;;;14.07;86.33
71716;BME280;59568;52.128;5.434;2023-05-23T01:44:19;102041.63;;;14.09;85.76
71716;BME280;59568;52.128;5.434;2023-05-23T01:46:47;102051.88;;;14.11;85.80
71716;BME280;59568;52.128;5.434;2023-05-23T01:49:15;102042.91;;;14.12;85.92
71716;BME280;59568;52.128;5.434;2023-05-23T01:51:44;102035.59;;;14.09;86.06
71716;BME280;59568;52.128;5.434;2023-05-23T01:54:13;102048.50;;;14.05;86.08
71716;BME280;59568;52.128;5.434;2023-05-23T01:56:42;102053.53;;;14.02;85.79
71716;BME280;59568;52.128;5.434;2023-05-23T01:59:10;102051.97;;;14.01;85.97
71716;BME280;59568;52.128;5.434;2023-05-23T02:01:37;102050.38;;;13.99;86.33
71716;BME280;59568;52.128;5.434;2023-05-23T02:04:05;102058.84;;;13.96;86.66
71716;BME280;59568;52.128;5.434;2023-05-23T02:06:32;102059.13;;;13.95;86.37
71716;BME280;59568;52.128;5.434;2023-05-23T02:08:59;102065.72;;;13.92;86.21
71716;BME280;59568;52.128;5.434;2023-05-23T02:11:27;102073.06;;;13.90;86.60
71716;BME280;59568;52.128;5.434;2023-05-23T02:13:53;102068.34;;;13.92;86.72
71716;BME280;59568;52.128;5.434;2023-05-23T02:16:20;102074.09;;;13.94;86.40
71716;BME280;59568;52.128;5.434;2023-05-23T02:18:48;102072.28;;;13.90;86.05
71716;BME280;59568;52.128;5.434;2023-05-23T02:21:18;102075.19;;;13.88;86.02
71716;BME280;59568;52.128;5.434;2023-05-23T02:23:45;102074.16;;;13.84;86.16
71716;BME280;59568;52.128;5.434;2023-05-23T02:26:12;102074.69;;;13.86;86.38
71716;BME280;59568;52.128;5.434;2023-05-23T02:28:39;102070.50;;;13.85;86.07
71716;BME280;59568;52.128;5.434;2023-05-23T02:31:06;102076.78;;;13.89;85.77
71716;BME280;59568;52.128;5.434;2023-05-23T02:33:34;102074.91;;;13.90;85.73
71716;BME280;59568;52.128;5.434;2023-05-23T02:36:01;102082.28;;;13.88;85.53
71716;BME280;59568;52.128;5.434;2023-05-23T02:38:27;102083.88;;;13.89;86.11
71716;BME280;59568;52.128;5.434;2023-05-23T02:40:56;102078.38;;;13.85;86.02
71716;BME280;59568;52.128;5.434;2023-05-23T02:43:23;102088.38;;;13.83;86.02
71716;BME280;59568;52.128;5.434;2023-05-23T02:45:50;102076.28;;;13.82;85.95
71716;BME280;59568;52.128;5.434;2023-05-23T02:48:17;102082.63;;;13.81;86.04
71716;BME280;59568;52.128;5.434;2023-05-23T02:50:44;102086.53;;;13.84;86.01
71716;BME280;59568;52.128;5.434;2023-05-23T02:53:11;102094.91;;;13.86;85.77
71716;BME280;59568;52.128;5.434;2023-05-23T02:55:38;102085.50;;;13.85;85.81
71716;BME280;59568;52.128;5.434;2023-05-23T02:58:05;102092.03;;;13.87;85.51
71716;BME280;59568;52.128;5.434;2023-05-23T03:00:32;102093.06;;;13.86;85.55
71716;BME280;59568;52.128;5.434;2023-05-23T03:02:59;102097.56;;;13.86;85.47
71716;BME280;59568;52.128;5.434;2023-05-23T03:05:26;102090.44;;;13.86;85.36
71716;BME280;59568;52.128;5.434;2023-05-23T03:07:53;102090.94;;;13.88;85.64
71716;BME280;59568;52.128;5.434;2023-05-23T03:10:20;102104.59;;;13.90;85.66
71716;BME280;59568;52.128;5.434;2023-05-23T03:12:47;102085.19;;;13.86;85.53
71716;BME280;59568;52.128;5.434;2023-05-23T03:15:14;102086.78;;;13.87;85.54
71716;BME280;59568;52.128;5.434;2023-05-23T03:17:41;102076.00;;;13.89;85.27
71716;BME280;59568;52.128;5.434;2023-05-23T03:20:08;102093.06;;;13.86;85.54
71716;BME280;59568;52.128;5.434;2023-05-23T03:22:35;102089.94;;;13.84;85.37
71716;BME280;59568;52.128;5.434;2023-05-23T03:25:02;102092.63;;;13.79;85.89
71716;BME280;59568;52.128;5.434;2023-05-23T03:27:30;102091.56;;;13.80;85.23
71716;BME280;59568;52.128;5.434;2023-05-23T03:29:57;102088.41;;;13.78;85.21
71716;BME280;59568;52.128;5.434;2023-05-23T03:32:23;102102.88;;;13.75;85.26
71716;BME280;59568;52.128;5.434;2023-05-23T03:34:51;102098.47;;;13.71;85.27
71716;BME280;59568;52.128;5.434;2023-05-23T03:37:18;102092.47;;;13.65;85.18
71716;BME280;59568;52.128;5.434;2023-05-23T03:39:45;102108.50;;;13.64;85.15
71716;BME280;59568;52.128;5.434;2023-05-23T03:42:12;102104.34;;;13.57;85.34
71716;BME280;59568;52.128;5.434;2023-05-23T03:44:38;102110.66;;;13.56;85.30
71716;BME280;59568;52.128;5.434;2023-05-23T03:47:05;102110.69;;;13.51;85.32
71716;BME280;59568;52.128;5.434;2023-05-23T03:49:32;102113.31;;;13.51;85.39
71716;BME280;59568;52.128;5.434;2023-05-23T03:51:59;102117.53;;;13.47;85.20
71716;BME280;59568;52.128;5.434;2023-05-23T03:54:26;102116.50;;;13.48;85.49
71716;BME280;59568;52.128;5.434;2023-05-23T03:56:53;102124.38;;;13.48;85.31
71716;BME280;59568;52.128;5.434;2023-05-23T03:59:20;102124.13;;;13.45;85.31
71716;BME280;59568;52.128;5.434;2023-05-23T04:01:47;102123.88;;;13.41;85.13
71716;BME280;59568;52.128;5.434;2023-05-23T04:04:13;102125.22;;;13.38;85.28
71716;BME280;59568;52.128;5.434;2023-05-23T04:06:42;102132.59;;;13.36;85.23
71716;BME280;59568;52.128;5.434;2023-05-23T04:09:10;102137.59;;;13.33;85.11
71716;BME280;59568;52.128;5.434;2023-05-23T04:11:36;102125.50;;;13.32;85.42
71716;BME280;59568;52.128;5.434;2023-05-23T04:14:03;102139.72;;;13.31;85.73
71716;BME280;59568;52.128;5.434;2023-05-23T04:16:30;102132.88;;;13.30;85.92
71716;BME280;59568;52.128;5.434;2023-05-23T04:18:59;102143.38;;;13.30;86.00
71716;BME280;59568;52.128;5.434;2023-05-23T04:21:27;102149.66;;;13.29;86.20
71716;BME280;59568;52.128;5.434;2023-05-23T04:23:54;102143.91;;;13.27;86.11
71716;BME280;59568;52.128;5.434;2023-05-23T04:26:21;102144.44;;;13.24;86.13
71716;BME280;59568;52.128;5.434;2023-05-23T04:28:49;102157.03;;;13.22;85.95
71716;BME280;59568;52.128;5.434;2023-05-23T04:31:16;102153.38;;;13.17;86.33
71716;BME280;59568;52.128;5.434;2023-05-23T04:33:43;102162.06;;;13.13;86.40
71716;BME280;59568;52.128;5.434;2023-05-23T04:36:10;102161.03;;;13.14;86.31
71716;BME280;59568;52.128;5.434;2023-05-23T04:38:36;102168.63;;;13.15;86.31
71716;BME280;59568;52.128;5.434;2023-05-23T04:41:06;102158.69;;;13.12;86.11
71716;BME280;59568;52.128;5.434;2023-05-23T04:43:38;102166.03;;;13.10;86.04
71716;BME280;59568;52.128;5.434;2023-05-23T04:46:08;102162.06;;;13.13;85.68
71716;BME280;59568;52.128;5.434;2023-05-23T04:48:36;102173.09;;;13.10;85.58
71716;BME280;59568;52.128;5.434;2023-05-23T04:51:04;102169.69;;;13.09;85.58
71716;BME280;59568;52.128;5.434;2023-05-23T04:53:34;102177.59;;;13.04;85.08
71716;BME280;59568;52.128;5.434;2023-05-23T04:56:02;102179.72;;;13.02;85.18
71716;BME280;59568;52.128;5.434;2023-05-23T04:58:29;102184.16;;;13.02;85.07
71716;BME280;59568;52.128;5.434;2023-05-23T05:00:57;102186.53;;;13.03;85.32
71716;BME280;59568;52.128;5.434;2023-05-23T05:03:24;102188.09;;;13.04;85.36
71716;BME280;59568;52.128;5.434;2023-05-23T05:05:51;102203.03;;;13.04;84.92
71716;BME280;59568;52.128;5.434;2023-05-23T05:08:19;102193.88;;;13.01;85.41
71716;BME280;59568;52.128;5.434;2023-05-23T05:10:46;102206.47;;;12.99;85.04
71716;BME280;59568;52.128;5.434;2023-05-23T05:13:13;102210.44;;;12.96;84.13
71716;BME280;59568;52.128;5.434;2023-05-23T05:15:40;102208.09;;;12.90;83.85
71716;BME280;59568;52.128;5.434;2023-05-23T05:18:08;102213.09;;;12.86;83.74
71716;BME280;59568;52.128;5.434;2023-05-23T05:20:35;102224.09;;;12.83;83.57
71716;BME280;59568;52.128;5.434;2023-05-23T05:23:02;102227.50;;;12.84;83.63
71716;BME280;59568;52.128;5.434;2023-05-23T05:25:29;102229.09;;;12.85;83.13
71716;BME280;59568;52.128;5.434;2023-05-23T05:28:00;102234.84;;;12.82;83.11
71716;BME280;59568;52.128;5.434;2023-05-23T05:30:32;102249.56;;;12.83;82.89
71716;BME280;59568;52.128;5.434;2023-05-23T05:33:03;102238.00;;;12.84;82.46
71716;BME280;59568;52.128;5.434;2023-05-23T05:35:35;102252.69;;;12.85;82.25
71716;BME280;59568;52.128;5.434;2023-05-23T05:38:04;102252.69;;;12.85;81.83
71716;BME280;59568;52.128;5.434;2023-05-23T05:40:31;102261.09;;;12.87;82.16
71716;BME280;59568;52.128;5.434;2023-05-23T05:42:58;102256.88;;;12.91;81.12
71716;BME280;59568;52.128;5.434;2023-05-23T05:45:25;102258.97;;;12.94;80.77
71716;BME280;59568;52.128;5.434;2023-05-23T05:47:52;102257.66;;;12.96;80.65
71716;BME280;59568;52.128;5.434;2023-05-23T05:50:19;102257.41;;;12.93;80.32
71716;BME280;59568;52.128;5.434;2023-05-23T05:52:46;102262.34;;;13.05;80.63
71716;BME280;59568;52.128;5.434;2023-05-23T05:55:13;102263.63;;;13.17;80.07
71716;BME280;59568;52.128;5.434;2023-05-23T05:57:40;102261.50;;;13.25;79.05
71716;BME280;59568;52.128;5.434;2023-05-23T06:00:12;102276.22;;;13.21;79.03
71716;BME280;59568;52.128;5.434;2023-05-23T06:02:45;102270.72;;;13.17;78.48
71716;BME280;59568;52.128;5.434;2023-05-23T06:05:23;102283.06;;;13.11;78.29
71716;BME280;59568;52.128;5.434;2023-05-23T06:07:51;102284.38;;;13.04;77.73
71716;BME280;59568;52.128;5.434;2023-05-23T06:10:18;102288.88;;;12.98;77.82
71716;BME280;59568;52.128;5.434;2023-05-23T06:12:45;102290.69;;;13.03;77.98
71716;BME280;59568;52.128;5.434;2023-05-23T06:15:12;102297.78;;;13.02;77.41
71716;BME280;59568;52.128;5.434;2023-05-23T06:17:40;102291.47;;;13.03;76.44
71716;BME280;59568;52.128;5.434;2023-05-23T06:20:08;102296.47;;;12.99;76.51
71716;BME280;59568;52.128;5.434;2023-05-23T06:22:35;102300.94;;;12.99;76.39
71716;BME280;59568;52.128;5.434;2023-05-23T06:25:02;102296.22;;;12.96;75.97
71716;BME280;59568;52.128;5.434;2023-05-23T06:27:29;102293.09;;;12.94;76.09
71716;BME280;59568;52.128;5.434;2023-05-23T06:29:56;102292.28;;;12.93;76.58
71716;BME280;59568;52.128;5.434;2023-05-23T06:32:23;102293.31;;;13.03;77.19
71716;BME280;59568;52.128;5.434;2023-05-23T06:34:50;102294.09;;;13.08;77.18
71716;BME280;59568;52.128;5.434;2023-05-23T06:37:17;102293.31;;;13.08;76.29
71716;BME280;59568;52.128;5.434;2023-05-23T06:39:44;102287.28;;;12.97;76.42
71716;BME280;59568;52.128;5.434;2023-05-23T06:42:11;102288.84;;;13.03;77.19
71716;BME280;59568;52.128;5.434;2023-05-23T06:44:38;102294.88;;;13.09;77.62
71716;BME280;59568;52.128;5.434;2023-05-23T06:47:05;102297.50;;;13.14;77.38
71716;BME280;59568;52.128;5.434;2023-05-23T06:49:32;102294.34;;;13.12;77.35
71716;BME280;59568;52.128;5.434;2023-05-23T06:51:58;102302.47;;;13.15;77.92
71716;BME280;59568;52.128;5.434;2023-05-23T06:54:25;102306.69;;;13.11;77.61
71716;BME280;59568;52.128;5.434;2023-05-23T06:56:52;102309.84;;;13.08;77.87
71716;BME280;59568;52.128;5.434;2023-05-23T06:59:19;102305.66;;;13.02;78.00
71716;BME280;59568;52.128;5.434;2023-05-23T07:01:46;102308.28;;;12.97;78.02
71716;BME280;59568;52.128;5.434;2023-05-23T07:04:13;102311.44;;;12.99;78.05
71716;BME280;59568;52.128;5.434;2023-05-23T07:06:40;102318.28;;;13.00;77.97
71716;BME280;59568;52.128;5.434;2023-05-23T07:09:07;102316.41;;;12.95;77.93
71716;BME280;59568;52.128;5.434;2023-05-23T07:11:34;102317.22;;;12.96;78.14
71716;BME280;59568;52.128;5.434;2023-05-23T07:14:01;102323.75;;;12.93;78.31
71716;BME280;59568;52.128;5.434;2023-05-23T07:16:28;102322.47;;;12.81;78.62
71716;BME280;59568;52.128;5.434;2023-05-23T07:18:55;102348.19;;;12.78;79.14
71716;BME280;59568;52.128;5.434;2023-05-23T07:21:22;102335.06;;;12.73;78.94
71716;BME280;59568;52.128;5.434;2023-05-23T07:23:48;102344.25;;;12.76;78.85
71716;BME280;59568;52.128;5.434;2023-05-23T07:26:15;102340.84;;;12.70;78.40
71716;BME280;59568;52.128;5.434;2023-05-23T07:28:42;102333.25;;;12.74;78.91
71716;BME280;59568;52.128;5.434;2023-05-23T07:31:09;102321.94;;;12.89;78.21
71716;BME280;59568;52.128;5.434;2023-05-23T07:33:37;102334.00;;;13.00;77.01
71716;BME280;59568;52.128;5.434;2023-05-23T07:36:04;102343.69;;;13.15;75.96
71716;BME280;59568;52.128;5.434;2023-05-23T07:38:31;102336.06;;;13.29;74.96
71716;BME280;59568;52.128;5.434;2023-05-23T07:40:58;102342.59;;;13.42;74.11
71716;BME280;59568;52.128;5.434;2023-05-23T07:43:38;102347.06;;;13.41;74.21
71716;BME280;59568;52.128;5.434;2023-05-23T07:46:05;102344.44;;;13.41;73.69
71716;BME280;59568;52.128;5.434;2023-05-23T07:48:32;102341.31;;;13.34;72.83
71716;BME280;59568;52.128;5.434;2023-05-23T07:50:59;102344.47;;;13.31;71.78
71716;BME280;59568;52.128;5.434;2023-05-23T07:53:26;102345.25;;;13.31;71.18
71716;BME280;59568;52.128;5.434;2023-05-23T07:55:53;102356.53;;;13.42;70.63
71716;BME280;59568;52.128;5.434;2023-05-23T07:58:20;102357.75;;;13.60;71.85
71716;BME280;59568;52.128;5.434;2023-05-23T08:00:49;102357.47;;;13.77;70.96
71716;BME280;59568;52.128;5.434;2023-05-23T08:03:18;102353.22;;;13.81;70.27
71716;BME280;59568;52.128;5.434;2023-05-23T08:05:46;102357.41;;;13.82;69.73
71716;BME280;59568;52.128;5.434;2023-05-23T08:08:13;102353.22;;;13.81;70.30
71716;BME280;59568;52.128;5.434;2023-05-23T08:10:39;102350.56;;;13.91;69.91
71716;BME280;59568;52.128;5.434;2023-05-23T08:13:10;102353.19;;;13.91;70.04
71716;BME280;59568;52.128;5.434;2023-05-23T08:15:37;102364.97;;;13.99;69.86
71716;BME280;59568;52.128;5.434;2023-05-23T08:18:04;102364.72;;;13.95;69.45
71716;BME280;59568;52.128;5.434;2023-05-23T08:20:31;102356.84;;;13.95;69.85
71716;BME280;59568;52.128;5.434;2023-05-23T08:22:59;102360.25;;;13.96;68.41
71716;BME280;59568;52.128;5.434;2023-05-23T08:25:27;102366.84;;;13.93;69.04
71716;BME280;59568;52.128;5.434;2023-05-23T08:27:58;102371.56;;;13.91;69.15
71716;BME280;59568;52.128;5.434;2023-05-23T08:30:27;102355.81;;;13.86;68.71
71716;BME280;59568;52.128;5.434;2023-05-23T08:32:54;102369.47;;;13.93;68.69
71716;BME280;59568;52.128;5.434;2023-05-23T08:35:22;102378.06;;;14.09;68.08
71716;BME280;59568;52.128;5.434;2023-05-23T08:37:50;102371.41;;;14.27;67.26
71716;BME280;59568;52.128;5.434;2023-05-23T08:40:20;102380.75;;;14.44;67.33
71716;BME280;59568;52.128;5.434;2023-05-23T08:42:49;102381.75;;;14.53;66.97
71716;BME280;59568;52.128;5.434;2023-05-23T08:45:17;102397.56;;;14.48;66.37
71716;BME280;59568;52.128;5.434;2023-05-23T08:47:45;102401.59;;;14.30;67.03
71716;BME280;59568;52.128;5.434;2023-05-23T08:50:13;102399.31;;;14.18;66.52
71716;BME280;59568;52.128;5.434;2023-05-23T08:55:16;102399.09;;;14.59;65.89
71716;BME280;59568;52.128;5.434;2023-05-23T08:57:43;102401.03;;;15.12;65.28
71716;BME280;59568;52.128;5.434;2023-05-23T09:00:11;102400.25;;;15.11;64.08
71716;BME280;59568;52.128;5.434;2023-05-23T09:02:42;102398.59;;;14.91;64.35
71716;BME280;59568;52.128;5.434;2023-05-23T09:05:11;102399.28;;;14.73;64.33
71716;BME280;59568;52.128;5.434;2023-05-23T09:07:39;102403.22;;;14.70;65.17
71716;BME280;59568;52.128;5.434;2023-05-23T09:10:08;102421.00;;;14.84;65.58
71716;BME280;59568;52.128;5.434;2023-05-23T09:12:36;102419.34;;;14.93;64.83
71716;BME280;59568;52.128;5.434;2023-05-23T09:15:06;102410.16;;;14.90;63.27
71716;BME280;59568;52.128;5.434;2023-05-23T09:17:35;102419.84;;;15.00;63.74
71716;BME280;59568;52.128;5.434;2023-05-23T09:20:09;102408.56;;;14.94;62.66
71716;BME280;59568;52.128;5.434;2023-05-23T09:22:37;102422.63;;;15.09;62.25
71716;BME280;59568;52.128;5.434;2023-05-23T09:25:05;102424.72;;;15.65;62.33
71716;BME280;59568;52.128;5.434;2023-05-23T09:27:33;102423.19;;;15.88;60.32
71716;BME280;59568;52.128;5.434;2023-05-23T09:30:08;102425.84;;;16.45;60.57
71716;BME280;59568;52.128;5.434;2023-05-23T09:32:36;102436.69;;;17.14;57.63
71716;BME280;59568;52.128;5.434;2023-05-23T09:35:06;102425.75;;;17.35;56.41
71716;BME280;59568;52.128;5.434;2023-05-23T09:37:39;102428.34;;;17.07;56.29
71716;BME280;59568;52.128;5.434;2023-05-23T09:40:08;102434.03;;;16.82;56.65
71716;BME280;59568;52.128;5.434;2023-05-23T09:42:46;102440.44;;;16.75;57.78
71716;BME280;59568;52.128;5.434;2023-05-23T09:45:14;102424.28;;;16.63;57.80
71716;BME280;59568;52.128;5.434;2023-05-23T09:47:49;102425.44;;;16.57;58.71
71716;BME280;59568;52.128;5.434;2023-05-23T09:50:18;102426.50;;;16.56;57.41
71716;BME280;59568;52.128;5.434;2023-05-23T09:52:45;102425.50;;;16.52;56.82
71716;BME280;59568;52.128;5.434;2023-05-23T09:55:13;102428.91;;;16.33;57.35
71716;BME280;59568;52.128;5.434;2023-05-23T09:57:42;102442.25;;;16.61;57.25
71716;BME280;59568;52.128;5.434;2023-05-23T10:00:10;102437.00;;;16.94;57.44
71716;BME280;59568;52.128;5.434;2023-05-23T10:05:37;102448.69;;;17.53;56.18
71716;BME280;59568;52.128;5.434;2023-05-23T10:08:15;102448.09;;;17.43;58.50
71716;BME280;59568;52.128;5.434;2023-05-23T10:13:26;102448.44;;;17.36;54.03
71716;BME280;59568;52.128;5.434;2023-05-23T10:15:58;102448.06;;;17.29;55.29
71716;BME280;59568;52.128;5.434;2023-05-23T10:18:28;102454.66;;;17.73;55.60
71716;BME280;59568;52.128;5.434;2023-05-23T10:21:00;102436.97;;;18.24;53.99
71716;BME280;59568;52.128;5.434;2023-05-23T10:23:32;102448.34;;;18.24;53.69
71716;BME280;59568;52.128;5.434;2023-05-23T10:25:59;102451.53;;;17.85;52.40
71716;BME280;59568;52.128;5.434;2023-05-23T10:28:27;102459.59;;;17.19;55.45
71716;BME280;59568;52.128;5.434;2023-05-23T10:30:54;102471.22;;;16.85;57.56
71716;BME280;59568;52.128;5.434;2023-05-23T10:33:21;102459.28;;;16.88;56.26
71716;BME280;59568;52.128;5.434;2023-05-23T10:36:09;102459.00;;;17.08;56.35
71716;BME280;59568;52.128;5.434;2023-05-23T10:38:45;102460.31;;;17.52;55.36
71716;BME280;59568;52.128;5.434;2023-05-23T10:41:32;102457.28;;;17.45;55.23
71716;BME280;59568;52.128;5.434;2023-05-23T10:44:11;102462.56;;;17.45;55.25
71716;BME280;59568;52.128;5.434;2023-05-23T10:46:58;102464.94;;;17.47;55.32
71716;BME280;59568;52.128;5.434;2023-05-23T10:49:43;102470.69;;;17.35;55.32
71716;BME280;59568;52.128;5.434;2023-05-23T10:52:12;102463.13;;;17.28;55.97
71716;BME280;59568;52.128;5.434;2023-05-23T10:54:45;102466.88;;;17.41;54.63
71716;BME280;59568;52.128;5.434;2023-05-23T10:57:16;102475.19;;;17.02;54.65
71716;BME280;59568;52.128;5.434;2023-05-23T10:59:45;102477.88;;;16.83;55.46
71716;BME280;59568;52.128;5.434;2023-05-23T11:02:14;102463.13;;;17.28;55.94
71716;BME280;59568;52.128;5.434;2023-05-23T11:04:41;102469.22;;;17.70;56.17
71716;BME280;59568;52.128;5.434;2023-05-23T11:07:31;102475.09;;;18.09;55.23
71716;BME280;59568;52.128;5.434;2023-05-23T11:10:11;102473.75;;;17.70;53.97
71716;BME280;59568;52.128;5.434;2023-05-23T11:12:41;102473.72;;;17.56;56.38
71716;BME280;59568;52.128;5.434;2023-05-23T11:17:56;102459.53;;;18.58;52.34
71716;BME280;59568;52.128;5.434;2023-05-23T11:20:23;102448.50;;;18.64;52.32
71716;BME280;59568;52.128;5.434;2023-05-23T11:22:58;102466.66;;;18.93;51.37
71716;BME280;59568;52.128;5.434;2023-05-23T11:25:41;102462.59;;;18.73;51.48
71716;BME280;59568;52.128;5.434;2023-05-23T11:28:09;102469.94;;;18.54;49.83
71716;BME280;59568;52.128;5.434;2023-05-23T11:30:38;102467.59;;;18.39;52.24
71716;BME280;59568;52.128;5.434;2023-05-23T11:33:10;102468.66;;;18.15;52.62
71716;BME280;59568;52.128;5.434;2023-05-23T11:35:40;102484.63;;;17.96;51.24
71716;BME280;59568;52.128;5.434;2023-05-23T11:38:07;102484.91;;;17.94;53.62
71716;BME280;59568;52.128;5.434;2023-05-23T11:40:36;102472.91;;;18.39;51.81
71716;BME280;59568;52.128;5.434;2023-05-23T11:43:13;102500.69;;;18.13;51.62
71716;BME280;59568;52.128;5.434;2023-05-23T11:45:41;102479.25;;;17.87;52.84
71716;BME280;59568;52.128;5.434;2023-05-23T11:48:12;102486.47;;;18.23;53.57
71716;BME280;59568;52.128;5.434;2023-05-23T11:50:52;102475.91;;;18.23;51.92
71716;BME280;59568;52.128;5.434;2023-05-23T11:53:21;102474.97;;;18.42;51.00
71716;BME280;59568;52.128;5.434;2023-05-23T11:55:54;102470.50;;;18.51;51.62
71716;BME280;59568;52.128;5.434;2023-05-23T11:58:25;102491.88;;;18.18;50.29
71716;BME280;59568;52.128;5.434;2023-05-23T12:01:06;102488.44;;;17.76;51.83
71716;BME280;59568;52.128;5.434;2023-05-23T12:03:46;102499.41;;;18.11;50.90
71716;BME280;59568;52.128;5.434;2023-05-23T12:06:15;102498.25;;;18.17;51.77
71716;BME280;59568;52.128;5.434;2023-05-23T12:08:42;102491.88;;;18.04;51.95
71716;BME280;59568;52.128;5.434;2023-05-23T12:11:09;102506.84;;;17.81;50.94
71716;BME280;59568;52.128;5.434;2023-05-23T12:13:40;102493.31;;;17.55;50.29
71716;BME280;59568;52.128;5.434;2023-05-23T12:16:08;102504.31;;;18.04;51.71
71716;BME280;59568;52.128;5.434;2023-05-23T12:18:36;102485.91;;;18.49;49.52
71716;BME280;59568;52.128;5.434;2023-05-23T12:21:05;102495.84;;;18.43;49.57
71716;BME280;59568;52.128;5.434;2023-05-23T12:23:34;102498.81;;;18.14;50.77
71716;BME280;59568;52.128;5.434;2023-05-23T12:26:06;102509.34;;;17.91;50.33
71716;BME280;59568;52.128;5.434;2023-05-23T12:28:41;102489.91;;;18.24;52.32
71716;BME280;59568;52.128;5.434;2023-05-23T12:31:12;102499.78;;;18.32;48.78
71716;BME280;59568;52.128;5.434;2023-05-23T12:33:41;102490.03;;;17.91;51.45
71716;BME280;59568;52.128;5.434;2023-05-23T12:36:11;102500.63;;;17.91;50.69
71716;BME280;59568;52.128;5.434;2023-05-23T12:38:38;102506.44;;;17.74;50.46
71716;BME280;59568;52.128;5.434;2023-05-23T12:41:10;102508.34;;;18.15;50.97
71716;BME280;59568;52.128;5.434;2023-05-23T12:43:38;102493.69;;;18.45;50.51
71716;BME280;59568;52.128;5.434;2023-05-23T12:46:06;102503.59;;;18.99;50.38
71716;BME280;59568;52.128;5.434;2023-05-23T12:48:33;102501.84;;;18.71;49.16
71716;BME280;59568;52.128;5.434;2023-05-23T12:51:01;102513.09;;;18.27;48.96
71716;BME280;59568;52.128;5.434;2023-05-23T12:53:29;102511.00;;;18.15;49.07
71716;BME280;59568;52.128;5.434;2023-05-23T12:55:56;102519.63;;;17.93;49.89
71716;BME280;59568;52.128;5.434;2023-05-23T12:58:23;102511.91;;;17.64;51.32
71716;BME280;59568;52.128;5.434;2023-05-23T13:00:50;102523.09;;;17.61;50.33
71716;BME280;59568;52.128;5.434;2023-05-23T13:03:17;102506.69;;;18.05;50.68
71716;BME280;59568;52.128;5.434;2023-05-23T13:05:44;102497.19;;;18.41;50.63
71716;BME280;59568;52.128;5.434;2023-05-23T13:08:11;102512.06;;;18.14;48.42
71716;BME280;59568;52.128;5.434;2023-05-23T13:10:38;102509.88;;;17.74;49.78
71716;BME280;59568;52.128;5.434;2023-05-23T13:13:05;102502.34;;;17.68;50.09
71716;BME280;59568;52.128;5.434;2023-05-23T13:15:32;102515.63;;;17.49;50.78